CWSA

Sable Island  Airport

Nova Scotia, Canada

CWSA 191739Z AUTO 16021G26KT 4SM -RA BR FEW023 SCT032 BKN075 BKN091 12/11 A2960 RMK PRESFR TS/LTNG TEMPO UNAVBL SLP025

Observed Flight Rules
Nov-19 @ 17:39 UTC (18 minutes ago)
 
Marginal Visual Flight Rules
Wind Visibility Clouds Conditions
160° at 21 knots
 Gusting to 26 knots
4 miles
  • Few at 2,300' AGL
  • Scattered at 3,200' AGL
  • Broken at 7,500' AGL
  • Broken at 9,100' AGL
  • Light Rain
  • Mist
Temperatures Readings
Current 12°C / 54°F
Dewpoint 11°C / 52°F
Humidity 94%
Altimeter 29.6" Hg
Pressure 1002.5 hPa
Elevation 4
Observed Flight Rules
Nov-19 @ 17:39 UTC
(18 minutes ago)
 
MVFR
Wind Visibility
160° at 21 knots
 Gusting to 26 knots
4 miles
Clouds
  • Few at 2,300' AGL
  • Scattered at 3,200' AGL
  • Broken at 7,500' AGL
  • Broken at 9,100' AGL
Conditions
  • Light Rain
  • Mist
Temperature Dewpoint
12°C / 54°F 11°C / 52°F
Humidity Altimeter Pressure
94% 29.6" Hg 1002.5 hPa